Time;durP1;ratioP1;P1;durP2;ratioP2;P2;SDS_P1;SDS_P2;PMS_P1;PMS_P2;Temp;Humidity;BMP_temperature;BMP_pressure;BME280_temperature;BME280_humidity;BME280_pressure;Samples;Min_cycle;Max_cycle;Signal;HPM_P1;HPM_P2
2022/07/31 00:00:07;;;;;;;4.50;3.13;;;;;;;;;;10157249;28;20090;-58
2022/07/31 00:05:11;;;;;;;4.00;3.58;;;;;;;;;;10159033;28;20050;-59
2022/07/31 00:10:09;;;;;;;3.83;3.17;;;;;;;;;;10158241;28;20100;-58
2022/07/31 00:15:09;;;;;;;4.63;3.35;;;;;;;;;;10158026;28;20046;-59
2022/07/31 00:20:08;;;;;;;3.75;3.45;;;;;;;;;;10157162;28;20571;-59
2022/07/31 00:25:09;;;;;;;4.18;3.65;;;;;;;;;;10157460;28;20050;-59
2022/07/31 00:30:08;;;;;;;4.38;4.00;;;;;;;;;;10157386;28;20061;-59
2022/07/31 00:35:07;;;;;;;6.15;3.85;;;;;;;;;;10156953;28;20046;-59
2022/07/31 00:40:06;;;;;;;5.00;3.95;;;;;;;;;;10157015;28;20042;-58
2022/07/31 00:45:06;;;;;;;5.20;4.45;;;;;;;;;;10156861;28;20530;-58
2022/07/31 00:50:05;;;;;;;5.53;4.68;;;;;;;;;;10156656;28;20042;-58
2022/07/31 00:55:04;;;;;;;5.45;4.32;;;;;;;;;;10156421;28;20496;-58
2022/07/31 01:00:03;;;;;;;5.30;4.53;;;;;;;;;;10156371;28;20053;-59
2022/07/31 01:05:03;;;;;;;5.47;4.97;;;;;;;;;;10155802;28;20085;-58
2022/07/31 01:10:04;;;;;;;6.07;5.38;;;;;;;;;;10155998;28;20046;-58
2022/07/31 01:15:05;;;;;;;6.15;5.03;;;;;;;;;;10154616;28;20058;-59
2022/07/31 01:20:06;;;;;;;6.97;4.97;;;;;;;;;;10153141;28;20674;-59
2022/07/31 01:25:08;;;;;;;11.77;5.70;;;;;;;;;;10153263;28;20050;-58
2022/07/31 01:30:14;;;;;;;5.55;4.90;;;;;;;;;;10153187;28;20057;-59
2022/07/31 01:35:15;;;;;;;6.55;5.95;;;;;;;;;;10152643;28;20042;-59
2022/07/31 01:40:15;;;;;;;6.55;5.75;;;;;;;;;;10150756;28;20081;-59
2022/07/31 01:45:16;;;;;;;6.32;5.43;;;;;;;;;;10151010;28;20049;-59
2022/07/31 01:50:16;;;;;;;7.40;5.82;;;;;;;;;;10150520;28;20157;-59
2022/07/31 01:55:35;;;;;;;5.95;5.25;;;;;;;;;;10148963;28;20554;-59
2022/07/31 02:00:57;;;;;;;6.65;5.93;;;;;;;;;;10149608;28;20401;-59
2022/07/31 02:05:59;;;;;;;7.43;6.00;;;;;;;;;;10152362;28;20050;-59
2022/07/31 02:11:00;;;;;;;8.07;5.63;;;;;;;;;;10151832;28;20051;-59
2022/07/31 02:16:03;;;;;;;6.07;5.15;;;;;;;;;;10151382;28;20107;-59
2022/07/31 02:21:03;;;;;;;10.05;5.75;;;;;;;;;;10152341;28;20085;-59
2022/07/31 02:26:02;;;;;;;5.80;5.30;;;;;;;;;;10151861;28;20062;-59
2022/07/31 02:31:01;;;;;;;6.13;5.53;;;;;;;;;;10152067;28;20046;-59
2022/07/31 02:36:02;;;;;;;7.07;6.45;;;;;;;;;;10150681;28;20053;-59
2022/07/31 02:41:03;;;;;;;6.00;5.50;;;;;;;;;;10151832;28;20496;-59
2022/07/31 02:46:03;;;;;;;6.07;5.45;;;;;;;;;;10156468;28;20058;-58
2022/07/31 02:51:03;;;;;;;6.55;5.32;;;;;;;;;;10158312;28;20042;-59
2022/07/31 02:56:03;;;;;;;8.35;5.57;;;;;;;;;;10159721;28;20043;-59
2022/07/31 03:01:06;;;;;;;6.65;5.68;;;;;;;;;;10158823;28;20476;-59
2022/07/31 03:06:09;;;;;;;5.93;5.43;;;;;;;;;;10157451;28;20070;-59
2022/07/31 03:11:08;;;;;;;6.22;5.50;;;;;;;;;;10157537;28;20058;-59
2022/07/31 03:16:10;;;;;;;6.63;6.03;;;;;;;;;;10157067;28;20534;-59
2022/07/31 03:21:11;;;;;;;6.05;5.55;;;;;;;;;;10161154;28;20082;-59
2022/07/31 03:26:10;;;;;;;7.82;6.10;;;;;;;;;;10171140;28;20062;-59
2022/07/31 03:31:09;;;;;;;6.70;6.10;;;;;;;;;;10171568;28;20060;-59
2022/07/31 03:36:08;;;;;;;7.07;5.88;;;;;;;;;;10194504;28;20520;-59
2022/07/31 03:41:08;;;;;;;7.28;6.55;;;;;;;;;;10196485;28;20046;-59
2022/07/31 03:46:07;;;;;;;6.10;5.60;;;;;;;;;;10196631;28;20046;-59
2022/07/31 03:51:06;;;;;;;6.75;6.05;;;;;;;;;;10196915;28;20065;-59
2022/07/31 03:56:06;;;;;;;6.45;5.85;;;;;;;;;;10194627;28;20074;-59
2022/07/31 04:01:07;;;;;;;7.10;6.05;;;;;;;;;;10195935;28;20077;-58
2022/07/31 04:06:09;;;;;;;6.90;6.30;;;;;;;;;;10196152;28;20061;-58
2022/07/31 04:11:07;;;;;;;5.88;5.38;;;;;;;;;;10180576;28;20100;-59
2022/07/31 04:16:07;;;;;;;7.88;6.07;;;;;;;;;;10174640;28;20038;-59
2022/07/31 04:21:05;;;;;;;6.45;5.93;;;;;;;;;;10177920;28;20081;-59
2022/07/31 04:26:04;;;;;;;6.85;6.25;;;;;;;;;;10185861;28;20046;-60
2022/07/31 04:31:08;;;;;;;8.07;5.65;;;;;;;;;;10174094;28;20065;-60
2022/07/31 04:36:09;;;;;;;6.50;5.90;;;;;;;;;;10145267;28;20621;-60
2022/07/31 04:41:28;;;;;;;7.60;5.85;;;;;;;;;;10161921;28;20573;-59
2022/07/31 04:46:28;;;;;;;7.03;6.43;;;;;;;;;;10184477;28;20046;-60
2022/07/31 04:51:27;;;;;;;6.70;5.85;;;;;;;;;;10175995;28;20080;-60
2022/07/31 04:56:36;;;;;;;8.32;7.13;;;;;;;;;;10160720;28;20400;-60
2022/07/31 05:01:37;;;;;;;7.82;7.10;;;;;;;;;;10185123;28;20686;-59
2022/07/31 05:06:36;;;;;;;7.60;6.90;;;;;;;;;;10177476;28;20045;-60
2022/07/31 05:11:35;;;;;;;7.45;6.82;;;;;;;;;;10194133;28;20491;-60
2022/07/31 05:16:35;;;;;;;7.47;6.80;;;;;;;;;;10156241;28;20074;-60
2022/07/31 05:21:35;;;;;;;7.03;6.43;;;;;;;;;;10147236;28;20527;-59
2022/07/31 05:27:13;;;;;;;7.70;7.00;;;;;;;;;;10145877;28;20086;-59
2022/07/31 05:32:12;;;;;;;9.40;7.82;;;;;;;;;;10149653;28;20105;-60
2022/07/31 05:37:13;;;;;;;7.63;6.93;;;;;;;;;;10146539;28;20511;-60
2022/07/31 05:42:11;;;;;;;8.52;7.82;;;;;;;;;;10145921;28;20518;-60
2022/07/31 05:47:28;;;;;;;11.00;7.63;;;;;;;;;;10157762;28;20086;-59
2022/07/31 05:52:41;;;;;;;10.07;9.23;;;;;;;;;;10153840;28;20038;-60
2022/07/31 05:58:15;;;;;;;8.25;7.55;;;;;;;;;;10134942;28;20085;-60
2022/07/31 06:03:15;;;;;;;8.57;7.78;;;;;;;;;;10151394;28;20640;-60
2022/07/31 06:08:27;;;;;;;9.82;8.65;;;;;;;;;;10151675;28;20058;-60
2022/07/31 06:13:28;;;;;;;9.02;8.25;;;;;;;;;;10152067;28;20069;-58
2022/07/31 06:18:32;;;;;;;8.32;7.63;;;;;;;;;;10153035;28;20090;-60
2022/07/31 06:23:32;;;;;;;10.32;9.40;;;;;;;;;;10159626;28;20054;-61
2022/07/31 06:28:51;;;;;;;9.23;8.40;;;;;;;;;;10160758;28;20104;-61
2022/07/31 06:33:50;;;;;;;9.70;8.77;;;;;;;;;;10160110;28;20416;-60
2022/07/31 06:38:54;;;;;;;10.52;9.73;;;;;;;;;;10159315;28;20522;-60
2022/07/31 06:44:11;;;;;;;11.57;10.27;;;;;;;;;;10168819;28;20441;-60
2022/07/31 06:49:32;;;;;;;11.98;10.88;;;;;;;;;;10159976;28;20046;-60
2022/07/31 06:54:32;;;;;;;12.10;10.93;;;;;;;;;;10158121;28;20420;-60
2022/07/31 06:59:31;;;;;;;12.38;11.35;;;;;;;;;;10158224;28;20473;-59
2022/07/31 07:04:38;;;;;;;15.05;13.55;;;;;;;;;;10158213;28;20065;-60
2022/07/31 07:09:58;;;;;;;11.63;10.57;;;;;;;;;;10157576;28;20050;-60
2022/07/31 07:15:19;;;;;;;12.90;11.60;;;;;;;;;;10157425;28;20081;-59
2022/07/31 07:20:18;;;;;;;11.30;10.10;;;;;;;;;;10157295;28;20058;-60
2022/07/31 07:25:19;;;;;;;10.88;9.98;;;;;;;;;;10157437;28;20050;-60
2022/07/31 07:30:20;;;;;;;10.30;9.40;;;;;;;;;;10156186;28;20144;-59
2022/07/31 07:35:20;;;;;;;12.75;11.40;;;;;;;;;;10156652;28;20050;-61
2022/07/31 07:40:24;;;;;;;12.68;11.57;;;;;;;;;;10156273;28;20074;-60
2022/07/31 07:45:23;;;;;;;13.10;11.88;;;;;;;;;;10156635;28;20408;-59
2022/07/31 07:50:21;;;;;;;12.93;11.90;;;;;;;;;;10156321;28;20058;-60
2022/07/31 07:55:47;;;;;;;12.70;11.60;;;;;;;;;;10157236;28;20420;-60
2022/07/31 08:01:11;;;;;;;10.90;9.93;;;;;;;;;;10158253;28;20598;-59
2022/07/31 08:06:11;;;;;;;11.60;10.50;;;;;;;;;;10156453;28;20050;-60
2022/07/31 08:11:11;;;;;;;10.85;9.40;;;;;;;;;;10157771;28;20049;-59
2022/07/31 08:16:26;;;;;;;9.40;8.48;;;;;;;;;;10156549;28;20054;-59
2022/07/31 08:21:27;;;;;;;11.00;10.18;;;;;;;;;;10155123;28;20090;-59
2022/07/31 08:27:22;;;;;;;14.27;12.98;;;;;;;;;;10156109;28;20046;-59
2022/07/31 08:31:46;;;;;;;14.48;11.88;;;;;;;;;;10155774;28;20038;-59
2022/07/31 08:37:24;;;;;;;13.13;11.95;;;;;;;;;;10111277;28;20508;-59
2022/07/31 08:42:45;;;;;;;10.75;9.85;;;;;;;;;;10140550;28;20173;-60
2022/07/31 08:47:46;;;;;;;13.45;12.27;;;;;;;;;;10154426;28;20050;-60
2022/07/31 08:52:53;;;;;;;13.68;12.35;;;;;;;;;;10153954;28;20409;-59
2022/07/31 08:58:19;;;;;;;15.90;13.25;;;;;;;;;;10153450;28;20420;-60
2022/07/31 09:03:18;;;;;;;18.83;14.88;;;;;;;;;;10153546;28;20054;-59
2022/07/31 09:08:24;;;;;;;15.30;14.20;;;;;;;;;;10154704;28;20050;-60
2022/07/31 09:13:24;;;;;;;17.38;15.68;;;;;;;;;;10155318;28;20070;-60
2022/07/31 09:18:24;;;;;;;15.80;14.05;;;;;;;;;;10153537;28;20062;-58
2022/07/31 09:23:44;;;;;;;14.45;13.18;;;;;;;;;;10153002;28;20057;-59
2022/07/31 09:28:44;;;;;;;16.77;15.45;;;;;;;;;;10153500;28;20050;-59
2022/07/31 09:33:43;;;;;;;17.20;15.80;;;;;;;;;;10153035;28;20097;-59
2022/07/31 09:38:46;;;;;;;16.42;14.82;;;;;;;;;;10163345;28;20077;-58
2022/07/31 09:44:15;;;;;;;17.80;16.00;;;;;;;;;;10155182;28;20073;-59
2022/07/31 09:49:14;;;;;;;17.65;16.05;;;;;;;;;;10152024;28;20057;-59
2022/07/31 09:54:20;;;;;;;18.13;16.70;;;;;;;;;;10151348;28;20376;-59
2022/07/31 09:59:42;;;;;;;17.85;16.38;;;;;;;;;;10151764;28;20112;-59
2022/07/31 10:04:42;;;;;;;17.70;16.10;;;;;;;;;;10150793;28;20561;-60
2022/07/31 10:09:44;;;;;;;17.50;15.75;;;;;;;;;;10151479;28;20081;-58
2022/07/31 10:14:53;;;;;;;16.52;15.23;;;;;;;;;;10154253;28;20069;-59
2022/07/31 10:19:54;;;;;;;14.45;13.35;;;;;;;;;;10151642;28;20090;-59
2022/07/31 10:25:11;;;;;;;16.42;15.02;;;;;;;;;;10151995;28;20066;-59
2022/07/31 10:30:12;;;;;;;15.15;13.75;;;;;;;;;;10151518;28;20053;-60
2022/07/31 10:35:21;;;;;;;13.27;12.15;;;;;;;;;;10151323;28;20065;-59
2022/07/31 10:40:42;;;;;;;14.07;12.73;;;;;;;;;;10157821;28;20086;-60
2022/07/31 10:45:50;;;;;;;15.25;13.00;;;;;;;;;;10151524;28;20039;-60
2022/07/31 10:51:09;;;;;;;13.57;12.18;;;;;;;;;;10156042;28;20054;-59
2022/07/31 10:56:27;;;;;;;14.80;12.30;;;;;;;;;;10151320;28;20054;-59
2022/07/31 11:01:44;;;;;;;14.80;13.40;;;;;;;;;;10151108;28;20097;-60
2022/07/31 11:07:14;;;;;;;11.60;10.70;;;;;;;;;;10156035;28;20065;-59
2022/07/31 11:12:28;;;;;;;13.40;12.20;;;;;;;;;;10157392;28;20073;-60
2022/07/31 11:17:57;;;;;;;12.32;11.20;;;;;;;;;;10156930;28;20069;-60
2022/07/31 11:23:28;;;;;;;12.25;11.27;;;;;;;;;;10158997;28;20074;-59
2022/07/31 11:28:26;;;;;;;11.40;10.50;;;;;;;;;;10157305;28;20798;-60
2022/07/31 11:33:30;;;;;;;11.77;10.88;;;;;;;;;;10158362;28;20062;-60
2022/07/31 11:38:40;;;;;;;11.77;10.88;;;;;;;;;;10158022;28;20066;-59
2022/07/31 11:43:43;;;;;;;11.23;10.25;;;;;;;;;;10157222;28;20157;-60
2022/07/31 11:48:43;;;;;;;10.35;9.43;;;;;;;;;;10157941;28;20108;-59
2022/07/31 11:53:42;;;;;;;8.40;7.70;;;;;;;;;;10156280;28;20062;-59
2022/07/31 11:58:46;;;;;;;8.20;7.50;;;;;;;;;;10156965;28;20177;-60
2022/07/31 12:03:46;;;;;;;10.15;9.25;;;;;;;;;;10157335;28;20077;-59
2022/07/31 12:08:46;;;;;;;9.35;8.45;;;;;;;;;;10156238;28;20038;-60
2022/07/31 12:13:45;;;;;;;11.32;9.80;;;;;;;;;;10157118;28;20066;-59
2022/07/31 12:18:48;;;;;;;9.05;8.18;;;;;;;;;;10156276;28;20469;-60
2022/07/31 12:23:48;;;;;;;7.88;4.57;;;;;;;;;;10165347;28;20085;-59
2022/07/31 12:28:55;;;;;;;4.90;4.40;;;;;;;;;;10156794;28;20047;-58
2022/07/31 12:33:55;;;;;;;4.63;4.20;;;;;;;;;;10156309;28;20081;-61
2022/07/31 12:39:00;;;;;;;5.47;3.80;;;;;;;;;;10156716;28;20078;-61
2022/07/31 12:44:08;;;;;;;4.53;4.22;;;;;;;;;;10156389;28;20499;-60
2022/07/31 12:49:11;;;;;;;4.32;3.75;;;;;;;;;;10156015;28;20209;-60
2022/07/31 12:54:10;;;;;;;3.92;3.63;;;;;;;;;;10155763;28;20061;-60
2022/07/31 12:59:08;;;;;;;5.28;2.80;;;;;;;;;;10155964;28;20424;-59
2022/07/31 13:04:08;;;;;;;3.20;3.00;;;;;;;;;;10155856;28;20104;-59
2022/07/31 13:09:17;;;;;;;4.30;3.90;;;;;;;;;;10155333;28;20046;-59
2022/07/31 13:14:16;;;;;;;3.90;3.60;;;;;;;;;;10155108;28;20440;-59
2022/07/31 13:19:15;;;;;;;4.25;3.83;;;;;;;;;;10154719;28;20078;-60
2022/07/31 13:24:13;;;;;;;10.70;4.50;;;;;;;;;;10154298;28;20085;-60
2022/07/31 13:29:13;;;;;;;9.60;5.90;;;;;;;;;;10153848;28;20046;-60
2022/07/31 13:34:11;;;;;;;5.43;4.68;;;;;;;;;;10154245;28;20077;-59
2022/07/31 13:39:10;;;;;;;8.02;7.32;;;;;;;;;;10153703;28;20084;-59
2022/07/31 13:44:08;;;;;;;9.32;8.43;;;;;;;;;;10153463;28;20073;-59
2022/07/31 13:49:09;;;;;;;9.93;9.02;;;;;;;;;;10154074;28;20514;-59
2022/07/31 13:54:07;;;;;;;6.13;5.53;;;;;;;;;;10153914;28;20767;-59
2022/07/31 13:59:06;;;;;;;7.07;5.18;;;;;;;;;;10153783;28;20424;-59
2022/07/31 14:04:04;;;;;;;7.88;7.15;;;;;;;;;;10153203;28;20078;-59
2022/07/31 14:09:04;;;;;;;13.10;7.97;;;;;;;;;;10153064;28;20034;-59
2022/07/31 14:14:02;;;;;;;8.23;5.50;;;;;;;;;;10152454;28;20081;-59
2022/07/31 14:19:00;;;;;;;8.90;7.53;;;;;;;;;;10152982;28;20065;-59
2022/07/31 14:23:59;;;;;;;9.25;6.47;;;;;;;;;;10152965;28;20080;-59
2022/07/31 14:28:59;;;;;;;11.02;8.05;;;;;;;;;;10152533;28;20053;-59
2022/07/31 14:34:04;;;;;;;7.25;6.07;;;;;;;;;;10153491;28;20047;-59
2022/07/31 14:39:02;;;;;;;5.13;4.72;;;;;;;;;;10153299;28;20088;-60
2022/07/31 14:44:02;;;;;;;10.07;5.47;;;;;;;;;;10160422;28;20066;-60
2022/07/31 14:49:01;;;;;;;5.68;4.95;;;;;;;;;;10160542;28;20084;-59
2022/07/31 14:54:00;;;;;;;5.45;4.95;;;;;;;;;;10159107;28;20079;-59
2022/07/31 14:58:58;;;;;;;5.22;4.78;;;;;;;;;;10160275;28;20072;-60
2022/07/31 15:03:58;;;;;;;4.78;4.10;;;;;;;;;;10159747;28;20081;-59
2022/07/31 15:08:56;;;;;;;4.88;2.67;;;;;;;;;;10159328;28;20088;-59
2022/07/31 15:13:55;;;;;;;3.00;2.70;;;;;;;;;;10159265;28;20041;-59
2022/07/31 15:18:53;;;;;;;4.93;2.63;;;;;;;;;;10158412;28;20058;-58
2022/07/31 15:23:53;;;;;;;2.40;2.13;;;;;;;;;;10158805;28;20081;-59
2022/07/31 15:28:51;;;;;;;2.55;2.28;;;;;;;;;;10158669;28;20046;-60
2022/07/31 15:33:50;;;;;;;4.65;2.40;;;;;;;;;;10158771;28;20050;-59
2022/07/31 15:38:48;;;;;;;5.97;2.22;;;;;;;;;;10158786;28;20599;-59
2022/07/31 15:43:48;;;;;;;4.57;2.20;;;;;;;;;;10157922;28;20476;-60
2022/07/31 15:48:46;;;;;;;1.88;1.70;;;;;;;;;;10157930;28;20534;-61
2022/07/31 15:53:44;;;;;;;4.85;1.80;;;;;;;;;;10157124;28;20051;-59
2022/07/31 15:58:43;;;;;;;5.40;1.73;;;;;;;;;;10157761;28;20690;-59
2022/07/31 16:03:42;;;;;;;2.47;2.28;;;;;;;;;;10157802;28;20074;-59
2022/07/31 16:08:50;;;;;;;4.13;1.92;;;;;;;;;;10157535;28;20043;-58
2022/07/31 16:13:48;;;;;;;3.60;2.20;;;;;;;;;;10157338;28;20046;-59
2022/07/31 16:18:48;;;;;;;3.08;2.55;;;;;;;;;;10156526;28;20092;-59
2022/07/31 16:23:46;;;;;;;2.72;2.45;;;;;;;;;;10157020;28;20086;-59
2022/07/31 16:28:44;;;;;;;2.80;2.40;;;;;;;;;;10156925;28;20092;-60
2022/07/31 16:33:43;;;;;;;5.47;2.35;;;;;;;;;;10156759;28;20476;-59
2022/07/31 16:38:49;;;;;;;3.13;2.50;;;;;;;;;;10156550;28;20048;-59
2022/07/31 16:44:07;;;;;;;4.25;3.35;;;;;;;;;;10155790;28;20116;-59
2022/07/31 16:49:06;;;;;;;3.60;3.30;;;;;;;;;;10156225;28;20518;-59
2022/07/31 16:54:25;;;;;;;3.70;3.35;;;;;;;;;;10156569;28;20065;-59
2022/07/31 16:59:24;;;;;;;2.78;2.13;;;;;;;;;;10155805;28;20444;-59
2022/07/31 17:04:22;;;;;;;3.10;2.35;;;;;;;;;;10154974;28;20089;-59
2022/07/31 17:09:21;;;;;;;4.55;3.33;;;;;;;;;;10155302;28;20070;-59
2022/07/31 17:14:21;;;;;;;3.17;2.88;;;;;;;;;;10155516;28;20519;-59
2022/07/31 17:19:21;;;;;;;5.47;3.75;;;;;;;;;;10154609;28;20089;-60
2022/07/31 17:24:39;;;;;;;5.95;5.35;;;;;;;;;;10155094;28;20506;-59
2022/07/31 17:29:39;;;;;;;3.42;3.13;;;;;;;;;;10154654;28;20049;-60
2022/07/31 17:34:37;;;;;;;5.60;4.32;;;;;;;;;;10154579;28;20081;-60
2022/07/31 17:39:36;;;;;;;4.82;3.85;;;;;;;;;;10154426;28;20046;-59
2022/07/31 17:44:34;;;;;;;4.32;3.92;;;;;;;;;;10154293;28;20185;-61
2022/07/31 17:49:34;;;;;;;4.03;3.63;;;;;;;;;;10153479;28;20086;-60
2022/07/31 17:54:32;;;;;;;4.00;3.70;;;;;;;;;;10154073;28;20069;-60
2022/07/31 17:59:31;;;;;;;5.38;3.67;;;;;;;;;;10153509;28;20038;-59
2022/07/31 18:04:30;;;;;;;3.70;3.40;;;;;;;;;;10153652;28;20119;-59
2022/07/31 18:09:30;;;;;;;3.67;3.38;;;;;;;;;;10152647;28;20058;-60
2022/07/31 18:14:28;;;;;;;6.53;3.90;;;;;;;;;;10154949;28;20085;-60
2022/07/31 18:19:26;;;;;;;4.20;3.80;;;;;;;;;;10161174;28;20671;-58
2022/07/31 18:24:25;;;;;;;6.57;3.92;;;;;;;;;;10161055;28;20518;-59
2022/07/31 18:29:24;;;;;;;7.68;5.07;;;;;;;;;;10161304;28;20092;-60
2022/07/31 18:34:23;;;;;;;4.57;4.18;;;;;;;;;;10160723;28;20084;-60
2022/07/31 18:39:21;;;;;;;4.30;3.90;;;;;;;;;;10160591;28;20070;-60
2022/07/31 18:44:20;;;;;;;4.43;4.00;;;;;;;;;;10160541;28;20093;-60
2022/07/31 18:49:20;;;;;;;5.03;3.97;;;;;;;;;;10160318;28;20085;-60
2022/07/31 18:54:39;;;;;;;4.65;3.97;;;;;;;;;;10159956;28;20085;-59
2022/07/31 18:59:37;;;;;;;8.32;4.22;;;;;;;;;;10160094;28;20050;-60
2022/07/31 19:04:37;;;;;;;6.13;5.50;;;;;;;;;;10159104;28;20078;-55
2022/07/31 19:09:35;;;;;;;8.30;4.40;;;;;;;;;;10150247;28;20077;-60
2022/07/31 19:14:33;;;;;;;5.63;5.13;;;;;;;;;;10159411;28;20134;-60
2022/07/31 19:19:32;;;;;;;5.43;4.90;;;;;;;;;;10158690;28;20420;-59
2022/07/31 19:24:52;;;;;;;5.80;5.20;;;;;;;;;;10156310;28;20069;-62
2022/07/31 19:29:50;;;;;;;6.32;5.47;;;;;;;;;;10158031;28;20089;-59
2022/07/31 19:34:48;;;;;;;6.72;6.05;;;;;;;;;;10138064;28;20062;-58
2022/07/31 19:39:49;;;;;;;7.40;6.32;;;;;;;;;;10136525;28;20062;-59
2022/07/31 19:44:49;;;;;;;7.43;6.32;;;;;;;;;;10157054;28;20108;-59
2022/07/31 19:49:47;;;;;;;6.57;6.00;;;;;;;;;;10168910;28;20549;-58
2022/07/31 19:54:45;;;;;;;5.18;4.68;;;;;;;;;;10170968;28;20503;-58
2022/07/31 19:59:45;;;;;;;10.30;5.40;;;;;;;;;;10178421;28;20077;-60
2022/07/31 20:04:45;;;;;;;6.50;5.63;;;;;;;;;;10184846;28;20508;-60
2022/07/31 20:09:44;;;;;;;4.90;4.55;;;;;;;;;;10159854;28;20081;-59
2022/07/31 20:14:42;;;;;;;7.22;5.65;;;;;;;;;;10159954;28;20054;-59
2022/07/31 20:19:41;;;;;;;5.63;4.10;;;;;;;;;;10171209;28;20070;-59
2022/07/31 20:25:01;;;;;;;5.07;4.57;;;;;;;;;;10177444;28;20088;-59
2022/07/31 20:30:20;;;;;;;7.13;4.43;;;;;;;;;;10157022;28;20089;-60
2022/07/31 20:35:19;;;;;;;4.53;4.13;;;;;;;;;;10155407;28;20501;-59
2022/07/31 20:40:39;;;;;;;7.40;5.07;;;;;;;;;;10151096;28;20077;-58
2022/07/31 20:45:49;;;;;;;14.95;6.43;;;;;;;;;;10152414;28;20081;-60
2022/07/31 20:50:47;;;;;;;6.93;4.15;;;;;;;;;;10164920;28;20488;-60
2022/07/31 20:55:48;;;;;;;4.22;3.83;;;;;;;;;;10195533;28;20034;-59
2022/07/31 21:00:47;;;;;;;4.88;4.47;;;;;;;;;;10195889;28;20076;-60
2022/07/31 21:05:46;;;;;;;5.15;4.65;;;;;;;;;;10194683;28;20285;-59
2022/07/31 21:10:44;;;;;;;5.43;4.90;;;;;;;;;;10194879;28;20072;-59
2022/07/31 21:15:44;;;;;;;6.50;3.92;;;;;;;;;;10195121;28;20100;-59
2022/07/31 21:20:43;;;;;;;4.32;3.67;;;;;;;;;;10194631;28;20049;-59
2022/07/31 21:25:50;;;;;;;7.18;3.97;;;;;;;;;;10194869;28;20092;-59
2022/07/31 21:30:52;;;;;;;8.40;4.00;;;;;;;;;;10194867;28;20046;-60
2022/07/31 21:35:51;;;;;;;3.88;3.47;;;;;;;;;;10194710;28;20491;-59
2022/07/31 21:40:49;;;;;;;4.35;3.95;;;;;;;;;;10194773;28;20044;-59
2022/07/31 21:45:48;;;;;;;5.18;3.28;;;;;;;;;;10192723;28;20096;-59
2022/07/31 21:50:54;;;;;;;2.92;2.63;;;;;;;;;;10194012;28;20046;-60
2022/07/31 21:55:53;;;;;;;3.10;2.80;;;;;;;;;;10193839;28;20057;-60
2022/07/31 22:00:51;;;;;;;4.35;2.72;;;;;;;;;;10194214;28;20042;-59
2022/07/31 22:11:07;;;;;;;4.78;4.28;;;;;;;;;;10193833;28;20046;-59
2022/07/31 22:16:05;;;;;;;12.90;2.72;;;;;;;;;;10193833;28;20077;-60
2022/07/31 22:21:05;;;;;;;2.88;2.47;;;;;;;;;;10194468;28;20069;-60
2022/07/31 22:26:03;;;;;;;4.07;2.35;;;;;;;;;;10193394;28;20073;-60
2022/07/31 22:31:03;;;;;;;7.07;1.83;;;;;;;;;;10192534;28;20050;-60
2022/07/31 22:36:05;;;;;;;4.30;1.80;;;;;;;;;;10192187;28;20126;-59
2022/07/31 22:41:04;;;;;;;4.90;1.50;;;;;;;;;;10194034;28;20046;-59
2022/07/31 22:46:04;;;;;;;2.25;1.73;;;;;;;;;;10193339;28;20088;-59
2022/07/31 22:51:02;;;;;;;2.70;1.80;;;;;;;;;;10193328;28;20046;-60
2022/07/31 22:56:01;;;;;;;1.60;1.45;;;;;;;;;;10192509;28;20049;-60
2022/07/31 23:00:59;;;;;;;2.10;1.55;;;;;;;;;;10195383;28;20058;-60
2022/07/31 23:05:59;;;;;;;2.55;2.00;;;;;;;;;;10199632;28;20085;-60
2022/07/31 23:11:18;;;;;;;2.03;1.83;;;;;;;;;;10200684;28;20054;-60
2022/07/31 23:16:16;;;;;;;4.53;1.50;;;;;;;;;;10200775;28;20052;-60
2022/07/31 23:21:16;;;;;;;4.93;1.52;;;;;;;;;;10200254;28;20066;-60
2022/07/31 23:26:14;;;;;;;2.97;1.98;;;;;;;;;;10199550;28;20077;-60
2022/07/31 23:31:12;;;;;;;2.05;1.92;;;;;;;;;;10199438;28;20061;-59
2022/07/31 23:36:11;;;;;;;2.90;1.60;;;;;;;;;;10198859;28;20049;-60
2022/07/31 23:41:11;;;;;;;1.40;1.30;;;;;;;;;;10199340;28;20078;-59
2022/07/31 23:46:09;;;;;;;1.95;1.67;;;;;;;;;;10199252;28;20085;-60
2022/07/31 23:51:07;;;;;;;4.55;1.58;;;;;;;;;;10198820;28;20077;-60
2022/07/31 23:56:06;;;;;;;2.45;1.58;;;;;;;;;;10197747;28;20073;-60
